createdAt,value
2022-08-21T00:01:55.234Z,8.32
2022-08-21T00:04:29.341Z,10.52
2022-08-21T00:06:59.558Z,14.27
2022-08-21T00:09:27.275Z,8.80
2022-08-21T00:11:55.017Z,9.68
2022-08-21T00:14:23.121Z,11.73
2022-08-21T00:16:51.206Z,11.27
2022-08-21T00:19:19.505Z,10.20
2022-08-21T00:21:49.540Z,9.77
2022-08-21T00:24:17.162Z,9.40
2022-08-21T00:26:45.164Z,9.85
2022-08-21T00:29:12.965Z,8.35
2022-08-21T00:31:41.494Z,8.35
2022-08-21T00:34:09.987Z,9.57
2022-08-21T00:36:38.508Z,7.75
2022-08-21T00:39:08.163Z,9.85
2022-08-21T00:41:39.123Z,7.85
2022-08-21T00:44:09.577Z,10.18
2022-08-21T00:46:38.640Z,9.98
2022-08-21T00:49:08.436Z,9.20
2022-08-21T00:51:53.212Z,13.90
2022-08-21T00:54:25.577Z,8.25
2022-08-21T00:57:04.469Z,9.67
2022-08-21T00:59:37.575Z,8.85
2022-08-21T01:02:08.314Z,10.40
2022-08-21T01:04:36.309Z,13.77
2022-08-21T01:07:04.353Z,10.57
2022-08-21T01:09:33.038Z,11.00
2022-08-21T01:12:01.384Z,9.55
2022-08-21T01:14:29.780Z,7.72
2022-08-21T01:16:58.972Z,12.00
2022-08-21T01:19:27.929Z,9.30
2022-08-21T01:21:56.134Z,10.65
2022-08-21T01:24:24.049Z,10.68
2022-08-21T01:26:53.140Z,12.25
2022-08-21T01:29:31.574Z,8.85
2022-08-21T01:32:04.213Z,13.32
2022-08-21T01:34:32.963Z,10.43
2022-08-21T01:37:00.803Z,9.80
2022-08-21T01:39:28.440Z,9.15
2022-08-21T01:41:56.072Z,9.70
2022-08-21T01:44:24.896Z,8.90
2022-08-21T01:46:53.635Z,9.65
2022-08-21T01:49:21.996Z,13.50
2022-08-21T01:51:50.013Z,10.38
2022-08-21T01:54:17.705Z,10.35
2022-08-21T01:56:48.477Z,9.65
2022-08-21T01:59:17.292Z,7.50
2022-08-21T02:01:45.213Z,8.70
2022-08-21T02:04:13.321Z,9.52
2022-08-21T02:06:41.791Z,9.23
2022-08-21T02:09:11.422Z,7.93
2022-08-21T02:11:42.474Z,9.10
2022-08-21T02:14:12.637Z,11.95
2022-08-21T02:16:44.740Z,12.23
2022-08-21T02:19:16.693Z,9.00
2022-08-21T02:21:44.375Z,9.00
2022-08-21T02:24:13.570Z,9.63
2022-08-21T02:26:41.401Z,11.82
2022-08-21T02:29:09.182Z,11.23
2022-08-21T02:31:37.244Z,8.38
2022-08-21T02:34:05.492Z,10.18
2022-08-21T02:36:33.484Z,9.40
2022-08-21T02:39:01.131Z,9.18
2022-08-21T02:41:29.443Z,8.15
2022-08-21T02:43:57.327Z,9.07
2022-08-21T02:46:25.012Z,9.75
2022-08-21T02:48:52.836Z,14.65
2022-08-21T02:51:21.221Z,9.07
2022-08-21T02:53:49.820Z,7.93
2022-08-21T02:56:21.239Z,12.27
2022-08-21T02:58:52.482Z,11.00
2022-08-21T03:01:22.799Z,10.90
2022-08-21T03:03:50.979Z,7.93
2022-08-21T03:06:22.337Z,10.40
2022-08-21T03:08:51.541Z,12.98
2022-08-21T03:11:21.702Z,9.38
2022-08-21T03:13:49.736Z,9.38
2022-08-21T03:16:17.593Z,11.52
2022-08-21T03:18:45.287Z,9.90
2022-08-21T03:21:14.080Z,10.25
2022-08-21T03:23:43.022Z,11.10
2022-08-21T03:26:12.036Z,11.95
2022-08-21T03:28:40.743Z,9.73
2022-08-21T03:31:09.683Z,8.27
2022-08-21T03:33:37.444Z,8.98
2022-08-21T03:36:08.470Z,8.77
2022-08-21T03:38:38.263Z,9.65
2022-08-21T03:41:08.734Z,10.57
2022-08-21T03:43:36.704Z,10.32
2022-08-21T03:46:06.805Z,13.07
2022-08-21T03:48:37.005Z,9.13
2022-08-21T03:51:05.033Z,8.85
2022-08-21T03:53:33.229Z,9.90
2022-08-21T03:56:00.850Z,10.13
2022-08-21T03:58:30.078Z,9.50
2022-08-21T04:01:00.309Z,9.88
2022-08-21T04:03:28.816Z,9.25
2022-08-21T04:05:57.210Z,10.73
2022-08-21T04:08:25.044Z,9.38
2022-08-21T04:10:56.259Z,11.50
2022-08-21T04:13:24.107Z,9.13
2022-08-21T04:15:52.174Z,9.88
2022-08-21T04:18:19.964Z,12.82
2022-08-21T04:20:52.171Z,10.27
2022-08-21T04:23:23.796Z,8.90
2022-08-21T04:25:54.418Z,9.10
2022-08-21T04:28:23.558Z,12.52
2022-08-21T04:30:57.930Z,10.93
2022-08-21T04:33:26.192Z,11.27
2022-08-21T04:35:53.976Z,9.43
2022-08-21T04:38:21.903Z,9.68
2022-08-21T04:40:51.593Z,10.00
2022-08-21T04:43:20.419Z,9.20
2022-08-21T04:45:50.266Z,12.50
2022-08-21T04:48:21.323Z,8.13
2022-08-21T04:50:52.428Z,10.10
2022-08-21T04:53:24.361Z,9.63
2022-08-21T04:55:54.600Z,9.93
2022-08-21T04:58:26.411Z,8.23
2022-08-21T05:00:58.971Z,8.00
2022-08-21T05:03:27.048Z,8.77
2022-08-21T05:05:55.460Z,9.15
2022-08-21T05:08:26.661Z,8.23
2022-08-21T05:10:59.677Z,10.45
2022-08-21T05:13:29.050Z,7.20
2022-08-21T05:15:56.766Z,7.80
2022-08-21T05:18:25.349Z,7.90
2022-08-21T05:20:53.465Z,9.70
2022-08-21T05:23:21.203Z,9.27
2022-08-21T05:25:49.033Z,8.25
2022-08-21T05:28:16.950Z,7.78
2022-08-21T05:30:45.128Z,9.15
2022-08-21T05:33:13.258Z,7.68
2022-08-21T05:35:41.481Z,6.43
2022-08-21T05:38:16.523Z,10.52
2022-08-21T05:40:46.797Z,7.15
2022-08-21T05:43:14.898Z,8.05
2022-08-21T05:45:44.349Z,8.15
2022-08-21T05:48:24.857Z,10.32
2022-08-21T05:50:53.509Z,9.05
2022-08-21T05:53:23.316Z,7.72
2022-08-21T05:55:52.301Z,9.65
2022-08-21T05:58:23.842Z,10.40
2022-08-21T06:00:53.863Z,7.50
2022-08-21T06:03:28.454Z,8.15
2022-08-21T06:05:57.490Z,11.65
2022-08-21T06:08:26.113Z,6.75
2022-08-21T06:10:55.806Z,6.57
2022-08-21T06:13:24.668Z,7.97
2022-08-21T06:16:16.168Z,7.85
2022-08-21T06:18:46.023Z,8.27
2022-08-21T06:21:14.596Z,8.88
2022-08-21T06:23:43.313Z,8.23
2022-08-21T06:26:14.403Z,7.45
2022-08-21T06:28:44.115Z,7.70
2022-08-21T06:31:18.545Z,8.38
2022-08-21T06:33:46.645Z,10.15
2022-08-21T06:36:15.100Z,9.07
2022-08-21T06:38:51.598Z,8.57
2022-08-21T06:41:22.518Z,11.15
2022-08-21T06:43:55.330Z,10.75
2022-08-21T06:46:24.297Z,9.65
2022-08-21T06:48:52.282Z,9.48
2022-08-21T06:51:20.040Z,9.23
2022-08-21T06:53:48.097Z,6.45
2022-08-21T06:56:16.207Z,8.23
2022-08-21T06:58:43.875Z,9.13
2022-08-21T07:01:12.541Z,8.90
2022-08-21T07:03:43.400Z,8.38
2022-08-21T07:06:12.511Z,7.43
2022-08-21T07:08:40.926Z,10.27
2022-08-21T07:11:22.084Z,8.32
2022-08-21T07:13:52.864Z,9.45
2022-08-21T07:16:21.659Z,8.32
2022-08-21T07:18:49.928Z,7.85
2022-08-21T07:21:20.699Z,11.25
2022-08-21T07:23:52.035Z,7.68
2022-08-21T07:26:23.568Z,7.10
2022-08-21T07:28:52.151Z,9.63
2022-08-21T07:31:22.383Z,6.20
2022-08-21T07:33:50.722Z,6.65
2022-08-21T07:36:18.584Z,7.53
2022-08-21T07:38:46.607Z,7.82
2022-08-21T07:41:22.700Z,9.70
2022-08-21T07:43:52.700Z,7.82
2022-08-21T07:46:21.671Z,10.77
2022-08-21T07:48:49.327Z,7.72
2022-08-21T07:51:19.056Z,6.80
2022-08-21T07:53:52.412Z,5.38
2022-08-21T07:56:21.074Z,6.40
2022-08-21T07:58:49.895Z,7.00
2022-08-21T08:01:18.584Z,6.20
2022-08-21T08:03:47.502Z,7.07
2022-08-21T08:06:17.579Z,7.50
2022-08-21T08:08:45.414Z,7.18
2022-08-21T08:11:16.328Z,5.15
2022-08-21T08:13:47.862Z,6.10
2022-08-21T08:16:16.582Z,4.78
2022-08-21T08:18:45.349Z,7.00
2022-08-21T08:21:14.358Z,5.80
2022-08-21T08:23:42.179Z,6.15
2022-08-21T08:26:09.952Z,6.47
2022-08-21T08:28:38.089Z,4.45
2022-08-21T08:31:06.076Z,7.38
2022-08-21T08:33:33.859Z,5.38
2022-08-21T08:36:07.979Z,6.22
2022-08-21T08:38:36.015Z,5.90
2022-08-21T08:41:30.690Z,4.30
2022-08-21T08:44:05.675Z,6.22
2022-08-21T08:46:40.412Z,4.80
2022-08-21T08:49:25.198Z,6.97
2022-08-21T08:51:58.565Z,7.15
2022-08-21T08:54:51.332Z,5.03
2022-08-21T08:57:23.819Z,5.50
2022-08-21T08:59:54.864Z,6.30
2022-08-21T09:02:24.398Z,6.38
2022-08-21T09:04:56.202Z,6.22
2022-08-21T09:07:41.225Z,3.65
2022-08-21T09:10:18.289Z,3.95
2022-08-21T09:13:17.276Z,6.40
2022-08-21T09:16:12.885Z,5.20
2022-08-21T09:18:49.624Z,5.10
2022-08-21T09:21:43.511Z,7.88
2022-08-21T09:24:29.027Z,6.15
2022-08-21T09:26:56.722Z,5.22
2022-08-21T09:29:30.565Z,4.50
2022-08-21T09:31:58.259Z,4.85
2022-08-21T09:34:32.329Z,6.47
2022-08-21T09:37:00.520Z,3.40
2022-08-21T09:39:32.094Z,6.25
2022-08-21T09:42:11.398Z,4.50
2022-08-21T09:44:44.331Z,3.88
2022-08-21T09:47:13.804Z,3.50
2022-08-21T09:49:44.994Z,4.13
2022-08-21T09:52:25.419Z,4.57
2022-08-21T09:54:57.354Z,6.80
2022-08-21T09:57:46.704Z,9.07
2022-08-21T10:00:31.288Z,8.27
2022-08-21T10:03:21.189Z,5.82
2022-08-21T10:06:09.555Z,5.78
2022-08-21T10:08:40.264Z,3.78
2022-08-21T10:11:12.649Z,3.92
2022-08-21T10:14:02.687Z,3.95
2022-08-21T10:16:52.242Z,5.55
2022-08-21T10:19:41.109Z,5.18
2022-08-21T10:22:39.349Z,5.60
2022-08-21T10:25:20.135Z,4.25
2022-08-21T10:28:19.202Z,3.47
2022-08-21T10:31:16.471Z,4.13
2022-08-21T10:34:09.716Z,5.00
2022-08-21T10:37:06.517Z,4.15
2022-08-21T10:40:16.620Z,5.38
2022-08-21T10:43:08.914Z,4.50
2022-08-21T10:45:57.955Z,7.97
2022-08-21T10:48:58.278Z,5.72
2022-08-21T10:51:41.045Z,4.90
2022-08-21T10:54:28.099Z,6.35
2022-08-21T10:57:06.782Z,6.93
2022-08-21T10:59:48.247Z,4.63
2022-08-21T11:02:34.134Z,6.63
2022-08-21T11:05:10.711Z,6.03
2022-08-21T11:07:49.641Z,5.32
2022-08-21T11:10:51.281Z,7.45
2022-08-21T11:13:31.206Z,4.07
2022-08-21T11:16:24.614Z,5.32
2022-08-21T11:19:06.802Z,12.63
2022-08-21T11:21:48.147Z,21.27
2022-08-21T11:24:41.135Z,4.55
2022-08-21T11:27:27.547Z,9.38
2022-08-21T11:30:00.943Z,7.53
2022-08-21T11:33:02.504Z,20.67
2022-08-21T11:35:33.766Z,6.22
2022-08-21T11:38:36.290Z,4.65
2022-08-21T11:41:37.090Z,4.43
2022-08-21T11:44:10.628Z,8.80
2022-08-21T11:46:54.223Z,3.90
2022-08-21T11:49:40.461Z,5.03
2022-08-21T11:52:23.607Z,5.05
2022-08-21T11:55:07.434Z,4.22
2022-08-21T12:00:37.237Z,5.63
2022-08-21T12:03:51.966Z,4.05
2022-08-21T12:06:47.067Z,4.78
2022-08-21T12:09:26.294Z,3.90
2022-08-21T12:12:02.932Z,4.40
2022-08-21T12:14:50.707Z,4.28
2022-08-21T12:17:25.252Z,4.00
2022-08-21T12:20:17.495Z,5.35
2022-08-21T12:23:19.260Z,4.20
2022-08-21T12:26:23.852Z,5.80
2022-08-21T12:28:52.078Z,3.67
2022-08-21T12:31:25.657Z,4.70
2022-08-21T12:34:00.403Z,4.40
2022-08-21T12:36:46.552Z,4.43
2022-08-21T12:39:24.512Z,6.45
2022-08-21T12:42:01.991Z,3.85
2022-08-21T12:44:38.699Z,4.20
2022-08-21T12:47:17.796Z,5.57
2022-08-21T12:50:11.095Z,4.95
2022-08-21T12:52:42.931Z,3.58
2022-08-21T12:55:25.982Z,4.60
2022-08-21T12:57:53.874Z,7.15
2022-08-21T13:00:26.179Z,6.57
2022-08-21T13:02:55.827Z,4.43
2022-08-21T13:05:34.489Z,8.32
2022-08-21T13:08:07.725Z,5.15
2022-08-21T13:10:37.580Z,6.68
2022-08-21T13:13:25.620Z,4.85
2022-08-21T13:16:02.804Z,4.53
2022-08-21T13:18:35.423Z,4.95
2022-08-21T13:21:11.965Z,7.65
2022-08-21T13:23:39.869Z,4.72
2022-08-21T13:26:33.892Z,7.07
2022-08-21T13:29:13.486Z,6.35
2022-08-21T13:31:47.317Z,4.05
2022-08-21T13:34:17.983Z,6.28
2022-08-21T13:36:48.054Z,3.80
2022-08-21T13:39:20.049Z,4.15
2022-08-21T13:41:51.064Z,5.35
2022-08-21T13:44:27.213Z,5.18
2022-08-21T13:46:55.995Z,5.45
2022-08-21T13:49:31.607Z,4.28
2022-08-21T13:51:59.756Z,9.02
2022-08-21T13:54:38.740Z,6.43
2022-08-21T13:57:24.957Z,4.78
2022-08-21T13:59:53.051Z,5.90
2022-08-21T14:02:24.931Z,5.47
2022-08-21T14:04:55.831Z,4.15
2022-08-21T14:07:40.502Z,4.00
2022-08-21T14:10:21.531Z,6.45
2022-08-21T14:12:55.586Z,5.30
2022-08-21T14:18:16.885Z,4.38
2022-08-21T14:20:44.956Z,4.45
2022-08-21T14:23:24.134Z,3.50
2022-08-21T14:25:51.871Z,4.45
2022-08-21T14:28:54.379Z,4.30
2022-08-21T14:31:31.844Z,4.32
2022-08-21T14:34:01.904Z,7.55
2022-08-21T14:36:29.677Z,5.38
2022-08-21T14:38:57.513Z,4.10
2022-08-21T14:41:28.634Z,3.72
2022-08-21T14:44:07.540Z,4.28
2022-08-21T14:46:51.172Z,6.32
2022-08-21T14:49:27.323Z,3.45
2022-08-21T14:51:58.722Z,5.57
2022-08-21T14:54:31.548Z,3.65
2022-08-21T14:57:18.201Z,4.33
2022-08-21T14:59:45.967Z,4.32
2022-08-21T15:02:13.954Z,3.45
2022-08-21T15:04:42.795Z,4.03
2022-08-21T15:07:10.609Z,5.22
2022-08-21T15:09:38.585Z,4.00
2022-08-21T15:12:08.384Z,5.70
2022-08-21T15:14:39.382Z,5.82
2022-08-21T15:17:11.120Z,5.93
2022-08-21T15:19:39.158Z,11.77
2022-08-21T15:22:06.828Z,4.93
2022-08-21T15:24:46.494Z,7.65
2022-08-21T15:27:16.813Z,7.28
2022-08-21T15:29:45.294Z,4.60
2022-08-21T15:32:27.207Z,4.93
2022-08-21T15:34:56.448Z,4.80
2022-08-21T15:37:25.666Z,5.93
2022-08-21T15:39:54.283Z,9.88
2022-08-21T15:42:23.629Z,7.72
2022-08-21T15:44:52.665Z,7.07
2022-08-21T15:47:32.274Z,7.50
2022-08-21T15:50:00.245Z,5.00
2022-08-21T15:52:28.338Z,5.18
2022-08-21T15:54:56.051Z,6.28
2022-08-21T15:57:25.939Z,11.27
2022-08-21T15:59:59.786Z,6.53
2022-08-21T16:02:33.320Z,7.90
2022-08-21T16:05:01.145Z,8.05
2022-08-21T16:07:29.268Z,5.72
2022-08-21T16:09:57.260Z,6.65
2022-08-21T16:12:29.335Z,7.25
2022-08-21T16:14:58.443Z,7.32
2022-08-21T16:17:31.923Z,5.13
2022-08-21T16:20:02.823Z,5.10
2022-08-21T16:22:44.597Z,8.00
2022-08-21T16:25:18.879Z,5.32
2022-08-21T16:27:50.536Z,4.97
2022-08-21T16:30:20.975Z,7.47
2022-08-21T16:32:49.303Z,9.52
2022-08-21T16:35:20.507Z,7.95
2022-08-21T16:37:52.796Z,8.77
2022-08-21T16:40:26.628Z,6.57
2022-08-21T16:42:55.611Z,6.00
2022-08-21T16:45:23.506Z,6.07
2022-08-21T16:47:51.630Z,7.03
2022-08-21T16:50:24.698Z,6.68
2022-08-21T16:52:52.950Z,10.53
2022-08-21T16:55:21.088Z,7.82
2022-08-21T16:57:48.998Z,5.68
2022-08-21T17:00:16.994Z,9.13
2022-08-21T17:02:53.685Z,7.70
2022-08-21T17:05:22.159Z,8.20
2022-08-21T17:07:50.201Z,9.40
2022-08-21T17:10:19.169Z,9.30
2022-08-21T17:12:55.920Z,7.60
2022-08-21T17:15:36.219Z,7.15
2022-08-21T17:18:07.690Z,7.32
2022-08-21T17:20:35.688Z,7.35
2022-08-21T17:23:03.643Z,7.97
2022-08-21T17:25:31.704Z,7.00
2022-08-21T17:28:00.471Z,6.60
2022-08-21T17:30:28.886Z,7.40
2022-08-21T17:32:59.979Z,8.18
2022-08-21T17:35:28.148Z,9.93
2022-08-21T17:37:57.036Z,7.95
2022-08-21T17:40:25.415Z,11.48
2022-08-21T17:42:53.320Z,10.75
2022-08-21T17:45:21.453Z,12.30
2022-08-21T17:47:49.271Z,11.52
2022-08-21T17:50:22.648Z,8.52
2022-08-21T17:52:51.055Z,9.38
2022-08-21T17:55:20.401Z,6.72
2022-08-21T17:57:50.811Z,10.25
2022-08-21T18:00:20.173Z,10.48
2022-08-21T18:02:51.239Z,8.48
2022-08-21T18:05:20.277Z,9.73
2022-08-21T18:07:48.199Z,12.85
2022-08-21T18:10:16.141Z,11.52
2022-08-21T18:12:45.348Z,11.23
2022-08-21T18:15:15.550Z,12.07
2022-08-21T18:17:46.799Z,11.95
2022-08-21T18:20:16.004Z,12.60
2022-08-21T18:22:45.683Z,17.25
2022-08-21T18:25:14.105Z,14.82
2022-08-21T18:27:45.627Z,13.02
2022-08-21T18:30:16.914Z,14.40
2022-08-21T18:32:45.450Z,14.40
2022-08-21T18:35:15.434Z,15.65
2022-08-21T18:37:44.212Z,30.52
2022-08-21T18:40:13.006Z,9.73
2022-08-21T18:42:47.882Z,13.02
2022-08-21T18:45:24.559Z,14.35
2022-08-21T18:47:55.553Z,16.20
2022-08-21T18:50:26.642Z,14.10
2022-08-21T18:52:54.841Z,16.63
2022-08-21T18:55:24.657Z,12.65
2022-08-21T18:57:54.580Z,12.88
2022-08-21T19:00:28.862Z,14.90
2022-08-21T19:02:56.980Z,23.42
2022-08-21T19:05:25.564Z,17.85
2022-08-21T19:07:55.370Z,22.00
2022-08-21T19:10:27.951Z,18.02
2022-08-21T19:13:01.447Z,16.88
2022-08-21T19:15:30.085Z,16.15
2022-08-21T19:17:59.101Z,23.45
2022-08-21T19:20:35.020Z,19.45
2022-08-21T19:23:06.580Z,18.20
2022-08-21T19:25:37.093Z,20.02
2022-08-21T19:28:12.211Z,42.85
2022-08-21T19:30:45.775Z,20.40
2022-08-21T19:33:37.955Z,25.42
2022-08-21T19:36:09.535Z,19.10
2022-08-21T19:38:38.563Z,19.27
2022-08-21T19:41:10.277Z,21.35
2022-08-21T19:44:02.771Z,23.92
2022-08-21T19:46:33.660Z,20.95
2022-08-21T19:49:05.718Z,17.20
2022-08-21T19:51:53.862Z,26.70
2022-08-21T19:54:25.750Z,19.23
2022-08-21T19:56:57.196Z,18.58
2022-08-21T19:59:28.085Z,17.40
2022-08-21T20:01:56.436Z,19.80
2022-08-21T20:04:24.401Z,20.25
2022-08-21T20:06:55.393Z,18.85
2022-08-21T20:09:23.204Z,24.00
2022-08-21T20:11:55.721Z,21.42
2022-08-21T20:14:30.475Z,20.90
2022-08-21T20:17:10.458Z,18.67
2022-08-21T20:19:43.102Z,21.00
2022-08-21T20:22:12.143Z,19.45
2022-08-21T20:24:42.067Z,19.10
2022-08-21T20:27:16.456Z,20.52
2022-08-21T20:32:12.471Z,19.85
2022-08-21T20:34:41.168Z,18.10
2022-08-21T20:37:13.399Z,14.45
2022-08-21T20:40:01.173Z,16.75
2022-08-21T20:42:29.277Z,16.63
2022-08-21T20:44:56.960Z,15.70
2022-08-21T20:47:24.672Z,15.43
2022-08-21T20:50:00.622Z,14.90
2022-08-21T20:52:34.814Z,18.05
2022-08-21T20:55:10.923Z,15.82
2022-08-21T20:58:00.437Z,16.55
2022-08-21T21:00:32.762Z,14.23
2022-08-21T21:03:30.137Z,20.15
2022-08-21T21:06:15.897Z,17.23
2022-08-21T21:08:58.022Z,15.60
2022-08-21T21:11:44.150Z,16.83
2022-08-21T21:14:22.602Z,11.85
2022-08-21T21:16:58.713Z,16.50
2022-08-21T21:19:53.949Z,15.95
2022-08-21T21:22:28.870Z,18.42
2022-08-21T21:25:16.576Z,16.48
2022-08-21T21:28:01.065Z,14.88
2022-08-21T21:30:41.582Z,14.23
2022-08-21T21:33:16.618Z,16.02
2022-08-21T21:35:49.223Z,18.73
2022-08-21T21:38:28.263Z,18.42
2022-08-21T21:41:27.593Z,16.40
2022-08-21T21:44:18.283Z,17.02
2022-08-21T21:47:21.180Z,17.38
2022-08-21T21:50:18.707Z,15.82
2022-08-21T21:53:21.247Z,21.02
2022-08-21T21:56:23.219Z,17.08
2022-08-21T21:59:19.160Z,22.70
2022-08-21T22:01:54.039Z,16.52
2022-08-21T22:04:50.857Z,18.00
2022-08-21T22:07:34.272Z,26.90
2022-08-21T22:10:19.657Z,17.27
2022-08-21T22:12:56.397Z,16.77
2022-08-21T22:15:37.640Z,19.20
2022-08-21T22:18:16.952Z,15.88
2022-08-21T22:21:08.823Z,19.17
2022-08-21T22:23:46.883Z,17.13
2022-08-21T22:26:22.371Z,16.40
2022-08-21T22:28:53.303Z,16.05
2022-08-21T22:31:28.202Z,16.80
2022-08-21T22:34:19.560Z,14.77
2022-08-21T22:36:59.360Z,17.85
2022-08-21T22:42:25.235Z,17.77
2022-08-21T22:44:57.857Z,16.00
2022-08-21T22:47:48.376Z,18.63
2022-08-21T22:50:32.474Z,17.70
2022-08-21T22:53:04.842Z,15.93
2022-08-21T22:55:43.890Z,18.27
2022-08-21T22:58:21.090Z,17.25
2022-08-21T23:01:09.650Z,17.10
2022-08-21T23:03:50.969Z,21.23
2022-08-21T23:06:44.999Z,16.88
2022-08-21T23:09:30.346Z,15.52
2022-08-21T23:14:54.704Z,16.48
2022-08-21T23:17:36.764Z,17.35
2022-08-21T23:20:33.290Z,14.30
2022-08-21T23:23:26.884Z,17.08
2022-08-21T23:26:28.572Z,19.58
2022-08-21T23:29:25.870Z,17.48
2022-08-21T23:32:01.619Z,17.30
2022-08-21T23:34:58.697Z,19.38
2022-08-21T23:37:51.619Z,15.68
2022-08-21T23:40:51.604Z,15.88
2022-08-21T23:43:29.150Z,15.75
2022-08-21T23:46:32.448Z,18.23
2022-08-21T23:49:35.749Z,16.63
2022-08-21T23:52:35.963Z,18.40
2022-08-21T23:55:03.580Z,17.00
2022-08-21T23:58:03.495Z,17.00
